createdAt,value
2023-05-12T00:00:13.298Z,3.63
2023-05-12T00:02:41.938Z,3.47
2023-05-12T00:05:09.436Z,4.17
2023-05-12T00:07:36.529Z,4.00
2023-05-12T00:10:03.720Z,4.13
2023-05-12T00:12:31.909Z,4.17
2023-05-12T00:14:58.778Z,3.90
2023-05-12T00:17:27.867Z,3.60
2023-05-12T00:19:54.991Z,4.23
2023-05-12T00:22:22.100Z,3.40
2023-05-12T00:24:48.847Z,4.37
2023-05-12T00:27:15.604Z,3.70
2023-05-12T00:29:42.366Z,3.73
2023-05-12T00:32:09.423Z,4.50
2023-05-12T00:34:36.338Z,4.33
2023-05-12T00:37:03.247Z,5.00
2023-05-12T00:39:30.033Z,4.50
2023-05-12T00:41:58.645Z,5.60
2023-05-12T00:44:26.042Z,6.13
2023-05-12T00:46:53.410Z,5.60
2023-05-12T00:49:20.981Z,5.73
2023-05-12T00:51:47.797Z,6.50
2023-05-12T00:54:14.682Z,5.20
2023-05-12T00:56:42.081Z,5.83
2023-05-12T00:59:09.770Z,5.83
2023-05-12T01:01:40.768Z,5.73
2023-05-12T01:04:08.131Z,5.37
2023-05-12T01:06:45.411Z,5.73
2023-05-12T01:09:13.124Z,6.10
2023-05-12T01:11:40.467Z,5.23
2023-05-12T01:14:07.403Z,5.70
2023-05-12T01:16:41.222Z,6.60
2023-05-12T01:19:15.053Z,6.27
2023-05-12T01:21:41.916Z,6.10
2023-05-12T01:24:09.795Z,6.23
2023-05-12T01:26:37.942Z,5.43
2023-05-12T01:29:06.096Z,6.00
2023-05-12T01:31:33.940Z,6.43
2023-05-12T01:34:01.180Z,6.67
2023-05-12T01:36:28.508Z,5.63
2023-05-12T01:38:55.746Z,6.20
2023-05-12T01:41:22.504Z,7.00
2023-05-12T01:43:49.452Z,7.00
2023-05-12T01:46:16.307Z,6.47
2023-05-12T01:48:44.048Z,6.37
2023-05-12T01:51:11.038Z,6.50
2023-05-12T01:53:38.139Z,5.87
2023-05-12T01:56:05.069Z,6.23
2023-05-12T01:58:33.566Z,6.87
2023-05-12T02:01:00.820Z,6.10
2023-05-12T02:03:27.909Z,6.60
2023-05-12T02:05:57.102Z,7.30
2023-05-12T02:08:24.577Z,6.67
2023-05-12T02:11:03.558Z,6.60
2023-05-12T02:13:30.306Z,6.53
2023-05-12T02:15:57.959Z,7.03
2023-05-12T02:18:24.870Z,6.40
2023-05-12T02:20:53.887Z,6.40
2023-05-12T02:23:20.791Z,6.90
2023-05-12T02:25:47.605Z,7.37
2023-05-12T02:28:14.523Z,7.70
2023-05-12T02:30:50.086Z,7.00
2023-05-12T02:33:20.269Z,7.27
2023-05-12T02:35:47.686Z,7.80
2023-05-12T02:38:14.675Z,6.80
2023-05-12T02:40:42.223Z,6.87
2023-05-12T02:43:09.024Z,6.83
2023-05-12T02:45:36.031Z,6.97
2023-05-12T02:48:03.015Z,6.77
2023-05-12T02:50:31.263Z,6.57
2023-05-12T02:52:58.019Z,6.57
2023-05-12T02:55:25.000Z,5.57
2023-05-12T02:57:51.905Z,6.47
2023-05-12T03:00:19.305Z,6.00
2023-05-12T03:02:46.375Z,6.77
2023-05-12T03:05:13.304Z,6.40
2023-05-12T03:07:40.272Z,6.93
2023-05-12T03:10:09.392Z,6.87
2023-05-12T03:12:36.928Z,7.07
2023-05-12T03:15:04.730Z,7.40
2023-05-12T03:17:31.579Z,7.00
2023-05-12T03:19:58.318Z,6.50
2023-05-12T03:22:25.157Z,6.70
2023-05-12T03:24:52.054Z,6.63
2023-05-12T03:27:19.026Z,6.03
2023-05-12T03:29:46.188Z,6.93
2023-05-12T03:32:13.589Z,6.80
2023-05-12T03:34:40.502Z,7.00
2023-05-12T03:37:08.431Z,7.00
2023-05-12T03:39:35.338Z,6.77
2023-05-12T03:42:02.963Z,6.10
2023-05-12T03:44:29.699Z,5.90
2023-05-12T03:46:57.463Z,6.60
2023-05-12T03:49:25.365Z,6.53
2023-05-12T03:51:52.157Z,6.80
2023-05-12T03:54:19.497Z,6.60
2023-05-12T03:56:47.410Z,7.23
2023-05-12T03:59:14.880Z,7.40
2023-05-12T04:01:41.761Z,6.20
2023-05-12T04:04:08.803Z,6.73
2023-05-12T04:06:36.924Z,7.20
2023-05-12T04:09:03.915Z,7.03
2023-05-12T04:11:30.754Z,6.70
2023-05-12T04:13:57.863Z,8.20
2023-05-12T04:16:24.675Z,8.90
2023-05-12T04:18:51.794Z,7.60
2023-05-12T04:21:18.593Z,8.53
2023-05-12T04:23:45.603Z,8.50
2023-05-12T04:26:12.796Z,7.47
2023-05-12T04:28:39.650Z,6.13
2023-05-12T04:31:06.785Z,6.00
2023-05-12T04:33:34.707Z,6.77
2023-05-12T04:36:02.395Z,6.43
2023-05-12T04:38:29.795Z,5.83
2023-05-12T04:41:00.380Z,6.00
2023-05-12T04:45:59.943Z,6.03
2023-05-12T04:48:29.044Z,5.90
2023-05-12T04:50:58.704Z,4.80
2023-05-12T04:53:25.674Z,5.30
2023-05-12T04:55:52.959Z,5.00
2023-05-12T04:58:19.847Z,4.63
2023-05-12T05:00:47.479Z,4.63
2023-05-12T05:03:14.454Z,5.77
2023-05-12T05:05:41.702Z,6.13
2023-05-12T05:08:08.983Z,5.90
2023-05-12T05:10:35.963Z,4.80
2023-05-12T05:13:02.987Z,5.03
2023-05-12T05:15:29.921Z,4.60
2023-05-12T05:17:56.988Z,4.77
2023-05-12T05:20:27.820Z,4.67
2023-05-12T05:22:55.339Z,4.50
2023-05-12T05:25:22.588Z,5.60
2023-05-12T05:27:49.445Z,5.80
2023-05-12T05:30:16.709Z,5.27
2023-05-12T05:32:45.053Z,5.33
2023-05-12T05:35:12.204Z,5.37
2023-05-12T05:37:44.494Z,4.70
2023-05-12T05:40:11.739Z,5.03
2023-05-12T05:42:38.645Z,5.10
2023-05-12T05:45:06.974Z,5.17
2023-05-12T05:47:34.389Z,5.60
2023-05-12T05:50:01.242Z,6.17
2023-05-12T05:52:28.166Z,5.20
2023-05-12T05:54:55.358Z,5.53
2023-05-12T05:57:23.498Z,5.17
2023-05-12T05:59:50.729Z,5.17
2023-05-12T06:02:18.016Z,6.10
2023-05-12T06:04:44.816Z,4.87
2023-05-12T06:07:12.039Z,5.53
2023-05-12T06:09:38.941Z,4.80
2023-05-12T06:12:06.759Z,5.10
2023-05-12T06:14:33.536Z,5.67
2023-05-12T06:17:00.310Z,5.30
2023-05-12T06:19:27.148Z,6.07
2023-05-12T06:21:53.892Z,5.80
2023-05-12T06:24:20.886Z,5.60
2023-05-12T06:26:47.605Z,6.10
2023-05-12T06:29:15.180Z,5.17
2023-05-12T06:31:42.063Z,5.77
2023-05-12T06:34:08.896Z,5.57
2023-05-12T06:36:35.717Z,5.07
2023-05-12T06:39:02.757Z,5.43
2023-05-12T06:41:30.296Z,5.53
2023-05-12T06:43:57.356Z,5.50
2023-05-12T06:46:28.075Z,5.50
2023-05-12T06:48:57.715Z,5.57
2023-05-12T06:51:24.802Z,5.90
2023-05-12T06:53:52.055Z,5.47
2023-05-12T06:56:19.241Z,6.50
2023-05-12T06:58:46.425Z,4.63
2023-05-12T07:01:13.562Z,5.90
2023-05-12T07:03:40.601Z,4.63
2023-05-12T07:06:07.606Z,5.00
2023-05-12T07:08:34.770Z,6.43
2023-05-12T07:11:01.673Z,5.30
2023-05-12T07:13:28.642Z,5.57
2023-05-12T07:15:55.397Z,5.53
2023-05-12T07:18:22.453Z,6.53
2023-05-12T07:20:49.480Z,6.10
2023-05-12T07:23:16.996Z,5.87
2023-05-12T07:25:44.037Z,5.63
2023-05-12T07:28:11.452Z,6.70
2023-05-12T07:30:38.805Z,5.50
2023-05-12T07:33:06.461Z,4.90
2023-05-12T07:35:33.357Z,5.50
2023-05-12T07:38:00.380Z,6.00
2023-05-12T07:40:27.123Z,5.43
2023-05-12T07:42:53.847Z,5.87
2023-05-12T07:45:23.226Z,6.10
2023-05-12T07:47:50.972Z,6.20
2023-05-12T07:50:20.807Z,5.50
2023-05-12T07:52:54.074Z,5.47
2023-05-12T07:55:22.616Z,6.00
2023-05-12T07:57:50.005Z,6.60
2023-05-12T08:00:16.945Z,5.40
2023-05-12T08:02:44.309Z,5.97
2023-05-12T08:05:11.916Z,5.90
2023-05-12T08:07:41.166Z,5.20
2023-05-12T08:10:10.168Z,5.20
2023-05-12T08:12:37.606Z,6.60
2023-05-12T08:15:04.713Z,5.90
2023-05-12T08:17:31.760Z,5.90
2023-05-12T08:19:58.544Z,4.90
2023-05-12T08:22:25.435Z,5.50
2023-05-12T08:24:55.427Z,5.70
2023-05-12T08:27:22.150Z,4.70
2023-05-12T08:29:48.852Z,5.90
2023-05-12T08:32:16.515Z,5.47
2023-05-12T08:34:43.937Z,5.53
2023-05-12T08:37:12.121Z,4.80
2023-05-12T08:39:39.043Z,4.90
2023-05-12T08:42:30.449Z,5.13
2023-05-12T08:44:59.735Z,5.13
2023-05-12T08:47:27.450Z,4.90
2023-05-12T08:50:00.812Z,5.20
2023-05-12T08:52:33.216Z,4.63
2023-05-12T08:55:01.090Z,4.63
2023-05-12T08:57:29.935Z,5.53
2023-05-12T08:59:59.504Z,4.83
2023-05-12T09:02:37.726Z,6.57
2023-05-12T09:05:12.282Z,4.43
2023-05-12T09:07:44.734Z,4.67
2023-05-12T09:10:33.477Z,4.93
2023-05-12T09:13:29.200Z,4.50
2023-05-12T09:15:58.958Z,5.10
2023-05-12T09:18:25.907Z,4.37
2023-05-12T09:20:52.662Z,4.60
2023-05-12T09:23:22.074Z,5.93
2023-05-12T09:26:01.512Z,4.90
2023-05-12T09:28:40.872Z,5.63
2023-05-12T09:31:22.820Z,4.50
2023-05-12T09:33:51.116Z,5.20
2023-05-12T09:36:22.417Z,4.70
2023-05-12T09:39:04.746Z,4.27
2023-05-12T09:41:35.381Z,4.60
2023-05-12T09:44:02.481Z,4.37
2023-05-12T09:46:29.353Z,4.43
2023-05-12T09:48:57.444Z,4.50
2023-05-12T09:51:26.008Z,4.83
2023-05-12T09:53:53.317Z,5.13
2023-05-12T09:56:20.181Z,3.90
2023-05-12T09:58:51.040Z,3.47
2023-05-12T10:01:23.391Z,3.90
2023-05-12T10:03:55.804Z,3.60
2023-05-12T10:06:40.588Z,3.20
2023-05-12T10:09:28.401Z,4.10
2023-05-12T10:11:56.519Z,3.67
2023-05-12T10:14:24.135Z,4.00
2023-05-12T10:16:51.474Z,3.80
2023-05-12T10:19:20.040Z,3.20
2023-05-12T10:21:47.256Z,3.63
2023-05-12T10:24:17.424Z,3.20
2023-05-12T10:26:45.118Z,3.00
2023-05-12T10:29:13.126Z,3.53
2023-05-12T10:31:40.443Z,3.30
2023-05-12T10:34:07.434Z,3.57
2023-05-12T10:36:49.746Z,3.70
2023-05-12T10:39:17.291Z,3.13
2023-05-12T10:41:44.232Z,3.20
2023-05-12T10:44:11.294Z,2.87
2023-05-12T10:46:38.502Z,3.00
2023-05-12T10:49:38.924Z,3.13
2023-05-12T10:52:06.073Z,2.80
2023-05-12T10:54:41.042Z,2.60
2023-05-12T10:57:17.115Z,2.70
2023-05-12T10:59:58.665Z,2.27
2023-05-12T11:02:34.965Z,2.33
2023-05-12T11:05:10.556Z,2.33
2023-05-12T11:07:38.039Z,2.70
2023-05-12T11:10:06.302Z,2.60
2023-05-12T11:12:36.202Z,2.50
2023-05-12T11:15:04.919Z,2.90
2023-05-12T11:17:32.153Z,3.37
2023-05-12T11:20:00.975Z,3.23
2023-05-12T11:22:28.056Z,2.77
2023-05-12T11:24:54.962Z,3.27
2023-05-12T11:27:23.476Z,3.47
2023-05-12T11:30:02.832Z,2.30
2023-05-12T11:32:30.174Z,2.70
2023-05-12T11:35:09.989Z,2.20
2023-05-12T11:37:41.099Z,2.13
2023-05-12T11:40:19.973Z,2.40
2023-05-12T11:42:49.295Z,1.90
2023-05-12T11:45:28.550Z,2.30
2023-05-12T11:48:07.789Z,2.17
2023-05-12T11:50:38.095Z,2.33
2023-05-12T11:53:05.088Z,2.00
2023-05-12T11:55:34.124Z,2.07
2023-05-12T11:58:03.106Z,2.40
2023-05-12T12:00:35.301Z,2.40
2023-05-12T12:03:10.339Z,2.43
2023-05-12T12:05:37.671Z,2.00
2023-05-12T12:08:06.376Z,2.73
2023-05-12T12:10:33.159Z,2.00
2023-05-12T12:13:01.418Z,2.90
2023-05-12T12:15:29.697Z,3.03
2023-05-12T12:17:56.522Z,2.40
2023-05-12T12:20:24.930Z,2.30
2023-05-12T12:22:52.947Z,2.17
2023-05-12T12:25:21.016Z,1.70
2023-05-12T12:27:48.144Z,1.73
2023-05-12T12:30:17.307Z,2.00
2023-05-12T12:32:44.868Z,1.87
2023-05-12T12:35:13.377Z,1.70
2023-05-12T12:37:41.104Z,1.90
2023-05-12T12:40:09.920Z,2.00
2023-05-12T12:42:38.465Z,1.97
2023-05-12T12:45:06.519Z,1.90
2023-05-12T12:47:33.289Z,1.97
2023-05-12T12:50:00.064Z,2.13
2023-05-12T12:52:26.865Z,2.30
2023-05-12T12:54:54.539Z,2.00
2023-05-12T12:57:22.188Z,1.50
2023-05-12T12:59:49.874Z,1.90
2023-05-12T13:02:17.221Z,1.67
2023-05-12T13:04:44.024Z,2.03
2023-05-12T13:07:10.824Z,1.77
2023-05-12T13:09:37.594Z,1.60
2023-05-12T13:12:05.444Z,2.07
2023-05-12T13:14:32.554Z,1.87
2023-05-12T13:16:59.368Z,2.30
2023-05-12T13:19:26.120Z,1.70
2023-05-12T13:21:52.898Z,2.10
2023-05-12T13:24:19.730Z,1.80
2023-05-12T13:26:46.821Z,1.70
2023-05-12T13:29:13.536Z,1.80
2023-05-12T13:31:41.262Z,1.57
2023-05-12T13:34:08.459Z,2.00
2023-05-12T13:36:35.663Z,1.80
2023-05-12T13:39:03.637Z,1.70
2023-05-12T13:41:30.541Z,1.80
2023-05-12T13:43:57.265Z,1.40
2023-05-12T13:46:24.301Z,1.60
2023-05-12T13:48:52.542Z,1.37
2023-05-12T13:51:19.987Z,1.40
2023-05-12T13:53:46.797Z,1.50
2023-05-12T13:56:17.580Z,1.60
2023-05-12T13:58:44.534Z,1.40
2023-05-12T14:01:11.696Z,1.63
2023-05-12T14:03:38.670Z,1.73
2023-05-12T14:06:06.153Z,1.73
2023-05-12T14:08:32.954Z,1.70
2023-05-12T14:10:59.928Z,1.40
2023-05-12T14:13:26.758Z,1.30
2023-05-12T14:15:54.241Z,2.00
2023-05-12T14:18:21.305Z,1.90
2023-05-12T14:20:48.252Z,1.73
2023-05-12T14:23:15.162Z,1.80
2023-05-12T14:25:41.879Z,2.67
2023-05-12T14:28:08.688Z,2.10
2023-05-12T14:30:35.601Z,1.77
2023-05-12T14:33:03.395Z,1.83
2023-05-12T14:35:30.591Z,1.90
2023-05-12T14:37:57.798Z,2.20
2023-05-12T14:40:25.266Z,2.20
2023-05-12T14:42:52.558Z,2.07
2023-05-12T14:45:19.901Z,2.30
2023-05-12T14:47:47.280Z,2.10
2023-05-12T14:50:14.599Z,2.50
2023-05-12T14:52:41.358Z,1.70
2023-05-12T14:55:12.345Z,1.97
2023-05-12T14:57:40.813Z,2.27
2023-05-12T15:00:10.802Z,2.17
2023-05-12T15:02:38.897Z,1.87
2023-05-12T15:05:07.289Z,1.97
2023-05-12T15:07:34.410Z,1.80
2023-05-12T15:10:01.389Z,2.00
2023-05-12T15:12:28.324Z,2.13
2023-05-12T15:14:56.345Z,2.00
2023-05-12T15:17:23.450Z,1.80
2023-05-12T15:19:50.313Z,2.00
2023-05-12T15:22:17.078Z,1.90
2023-05-12T15:24:44.505Z,1.30
2023-05-12T15:27:11.254Z,1.60
2023-05-12T15:29:39.433Z,1.83
2023-05-12T15:32:06.910Z,1.30
2023-05-12T15:34:36.738Z,1.27
2023-05-12T15:37:04.024Z,1.80
2023-05-12T15:39:31.598Z,1.67
2023-05-12T15:41:58.974Z,1.60
2023-05-12T15:44:26.184Z,1.30
2023-05-12T15:46:53.193Z,1.20
2023-05-12T15:49:20.098Z,1.10
2023-05-12T15:51:46.938Z,1.40
2023-05-12T15:54:13.720Z,1.10
2023-05-12T15:56:40.919Z,1.40
2023-05-12T15:59:08.273Z,1.70
2023-05-12T16:01:35.088Z,1.30
2023-05-12T16:04:01.989Z,1.13
2023-05-12T16:06:28.860Z,1.40
2023-05-12T16:08:55.769Z,1.30
2023-05-12T16:11:22.594Z,1.37
2023-05-12T16:13:52.300Z,1.40
2023-05-12T16:16:19.914Z,1.53
2023-05-12T16:18:46.988Z,1.53
2023-05-12T16:21:14.188Z,1.43
2023-05-12T16:23:40.940Z,1.33
2023-05-12T16:26:08.281Z,2.13
2023-05-12T16:28:35.465Z,1.83
2023-05-12T16:31:03.483Z,1.30
2023-05-12T16:33:30.560Z,1.80
2023-05-12T16:35:57.544Z,1.23
2023-05-12T16:38:24.848Z,1.70
2023-05-12T16:40:51.548Z,1.50
2023-05-12T16:43:18.307Z,1.73
2023-05-12T16:45:45.293Z,2.10
2023-05-12T16:48:12.223Z,2.47
2023-05-12T16:50:38.971Z,2.03
2023-05-12T16:53:06.175Z,2.50
2023-05-12T16:55:33.234Z,2.00
2023-05-12T16:58:00.016Z,2.60
2023-05-12T17:00:26.820Z,3.50
2023-05-12T17:02:53.712Z,4.30
2023-05-12T17:05:21.351Z,3.00
2023-05-12T17:07:48.526Z,3.23
2023-05-12T17:10:15.854Z,3.47
2023-05-12T17:12:42.849Z,3.83
2023-05-12T17:15:10.396Z,4.00
2023-05-12T17:17:37.559Z,5.50
2023-05-12T17:20:06.005Z,5.60
2023-05-12T17:22:34.918Z,2.63
2023-05-12T17:25:01.740Z,2.70
2023-05-12T17:27:28.499Z,3.27
2023-05-12T17:29:55.275Z,2.10
2023-05-12T17:32:22.077Z,2.40
2023-05-12T17:34:52.100Z,2.67
2023-05-12T17:37:18.878Z,2.60
2023-05-12T17:39:46.232Z,2.40
2023-05-12T17:42:13.116Z,2.40
2023-05-12T17:44:39.924Z,2.60
2023-05-12T17:47:07.788Z,2.97
2023-05-12T17:49:34.578Z,3.07
2023-05-12T17:52:01.384Z,2.40
2023-05-12T17:54:28.145Z,2.30
2023-05-12T17:56:55.297Z,2.13
2023-05-12T17:59:22.626Z,2.17
2023-05-12T18:01:49.482Z,2.37
2023-05-12T18:04:16.280Z,2.30
2023-05-12T18:06:43.035Z,2.23
2023-05-12T18:09:10.440Z,2.20
2023-05-12T18:11:37.205Z,2.67
2023-05-12T18:14:05.853Z,2.60
2023-05-12T18:16:33.535Z,3.30
2023-05-12T18:19:00.507Z,2.70
2023-05-12T18:21:27.608Z,2.73
2023-05-12T18:23:55.692Z,2.87
2023-05-12T18:26:22.917Z,3.20
2023-05-12T18:28:49.726Z,3.10
2023-05-12T18:31:19.538Z,2.90
2023-05-12T18:33:48.026Z,3.00
2023-05-12T18:36:15.453Z,3.23
2023-05-12T18:38:42.595Z,2.40
2023-05-12T18:41:10.025Z,2.73
2023-05-12T18:43:37.010Z,2.70
2023-05-12T18:46:05.943Z,2.47
2023-05-12T18:48:33.067Z,2.17
2023-05-12T18:51:01.241Z,2.60
2023-05-12T18:53:28.344Z,3.37
2023-05-12T18:55:55.201Z,2.87
2023-05-12T18:58:22.105Z,3.50
2023-05-12T19:00:49.039Z,2.70
2023-05-12T19:03:16.259Z,2.70
2023-05-12T19:05:44.565Z,2.97
2023-05-12T19:08:12.574Z,3.40
2023-05-12T19:10:40.124Z,2.80
2023-05-12T19:13:07.202Z,3.47
2023-05-12T19:15:34.305Z,3.70
2023-05-12T19:18:01.144Z,3.90
2023-05-12T19:20:28.999Z,3.30
2023-05-12T19:22:56.028Z,4.17
2023-05-12T19:25:23.778Z,3.53
2023-05-12T19:27:50.927Z,3.43
2023-05-12T19:30:17.912Z,5.03
2023-05-12T19:32:46.201Z,3.33
2023-05-12T19:35:16.617Z,4.57
2023-05-12T19:37:43.837Z,5.07
2023-05-12T19:40:10.879Z,5.00
2023-05-12T19:42:38.098Z,4.20
2023-05-12T19:45:05.866Z,3.67
2023-05-12T19:47:33.424Z,3.10
2023-05-12T19:50:00.591Z,3.70
2023-05-12T19:52:30.428Z,3.37
2023-05-12T19:54:57.388Z,3.63
2023-05-12T19:57:24.135Z,3.30
2023-05-12T19:59:50.892Z,5.00
2023-05-12T20:02:17.716Z,5.83
2023-05-12T20:04:45.041Z,4.60
2023-05-12T20:07:11.840Z,3.73
2023-05-12T20:09:38.763Z,3.37
2023-05-12T20:12:07.906Z,3.60
2023-05-12T20:14:35.750Z,3.30
2023-05-12T20:17:05.628Z,3.80
2023-05-12T20:19:35.884Z,4.00
2023-05-12T20:22:02.591Z,3.90
2023-05-12T20:24:29.354Z,3.17
2023-05-12T20:26:56.572Z,3.53
2023-05-12T20:29:25.535Z,3.40
2023-05-12T20:31:53.140Z,3.33
2023-05-12T20:34:20.043Z,3.90
2023-05-12T20:36:47.029Z,3.73
2023-05-12T20:39:15.373Z,4.90
2023-05-12T20:41:45.945Z,4.13
2023-05-12T20:44:12.677Z,4.70
2023-05-12T20:46:39.734Z,6.40
2023-05-12T20:49:06.776Z,7.40
2023-05-12T20:51:33.580Z,6.17
2023-05-12T20:54:00.713Z,5.80
2023-05-12T20:56:27.891Z,7.73
2023-05-12T20:58:54.723Z,8.47
2023-05-12T21:01:21.514Z,8.47
2023-05-12T21:03:48.632Z,8.80
2023-05-12T21:06:15.447Z,9.83
2023-05-12T21:08:42.357Z,11.30
2023-05-12T21:11:17.638Z,11.87
2023-05-12T21:13:45.979Z,9.90
2023-05-12T21:16:12.837Z,11.30
2023-05-12T21:18:39.682Z,11.80
2023-05-12T21:21:06.738Z,11.10
2023-05-12T21:23:34.641Z,11.13
2023-05-12T21:26:01.369Z,11.47
2023-05-12T21:28:28.295Z,11.17
2023-05-12T21:30:55.202Z,11.20
2023-05-12T21:33:22.131Z,10.90
2023-05-12T21:35:50.047Z,11.00
2023-05-12T21:38:17.260Z,8.97
2023-05-12T21:40:44.303Z,9.30
2023-05-12T21:43:11.475Z,8.27
2023-05-12T21:45:38.276Z,7.60
2023-05-12T21:48:05.353Z,7.30
2023-05-12T21:50:32.181Z,6.60
2023-05-12T21:52:58.883Z,6.40
2023-05-12T21:55:25.651Z,5.00
2023-05-12T21:57:52.390Z,5.13
2023-05-12T22:00:20.503Z,5.80
2023-05-12T22:02:50.725Z,5.50
2023-05-12T22:05:17.715Z,5.30
2023-05-12T22:07:45.415Z,6.20
2023-05-12T22:10:12.216Z,5.73
2023-05-12T22:12:39.128Z,6.60
2023-05-12T22:15:06.864Z,6.23
2023-05-12T22:17:33.756Z,5.70
2023-05-12T22:20:00.559Z,6.40
2023-05-12T22:22:27.284Z,5.77
2023-05-12T22:24:54.211Z,5.10
2023-05-12T22:27:22.466Z,5.83
2023-05-12T22:29:49.755Z,5.50
2023-05-12T22:32:16.606Z,5.47
2023-05-12T22:34:43.561Z,6.23
2023-05-12T22:37:10.425Z,6.00
2023-05-12T22:39:37.347Z,7.13
2023-05-12T22:42:04.738Z,7.60
2023-05-12T22:44:31.608Z,8.23
2023-05-12T22:46:58.772Z,8.10
2023-05-12T22:49:25.661Z,7.40
2023-05-12T22:51:52.530Z,7.30
2023-05-12T22:54:19.363Z,7.40
2023-05-12T22:56:46.134Z,5.77
2023-05-12T22:59:12.896Z,6.00
2023-05-12T23:01:39.776Z,6.00
2023-05-12T23:04:07.283Z,5.97
2023-05-12T23:06:34.354Z,5.20
2023-05-12T23:09:01.453Z,4.50
2023-05-12T23:11:28.258Z,4.90
2023-05-12T23:13:55.317Z,4.50
2023-05-12T23:16:23.649Z,5.20
2023-05-12T23:18:50.726Z,5.30
2023-05-12T23:21:17.893Z,4.73
2023-05-12T23:23:44.612Z,4.63
2023-05-12T23:26:11.353Z,4.07
2023-05-12T23:28:38.071Z,4.03
2023-05-12T23:31:05.394Z,4.23
2023-05-12T23:33:32.321Z,4.40
2023-05-12T23:35:59.138Z,4.20
2023-05-12T23:38:25.901Z,3.90
2023-05-12T23:40:52.838Z,3.97
2023-05-12T23:43:19.689Z,3.73
2023-05-12T23:45:46.580Z,3.17
2023-05-12T23:48:13.379Z,3.30
2023-05-12T23:50:40.253Z,3.30
2023-05-12T23:53:07.075Z,3.30
2023-05-12T23:55:34.023Z,3.57
2023-05-12T23:58:01.330Z,3.13
